METAR Rapporter från flygplatser

 

ESTA - Ängelholm, Sweden
Distance from station: SSV 17km
Uppdaterad: 2020-10-27 13:20
Delvis molnigt
Delvis molnigt
 Vind från S
Vind: S 20 km/h
Temperatur: 12°C
Daggpunkt: 7°C
Luftfuktighet: 72%
Barometer: 1002 hPa
Clouds: Delvis molnigt
Visibility: 10 km
Cloud details: Delvis molnigt 853 m
2020/10/27 12:20 ESTA 271220Z 18011KT 9999 SCT028 12/07 Q1002
ESMT - Halmstad, Sweden
Distance from station: N 26km
Uppdaterad: 2020-10-27 13:20
Övervägande molnigt
Övervägande molnigt
 Vind från SSV
Vind: SSV 28 km/h
Temperatur: 11°C
Daggpunkt: 7°C
Luftfuktighet: 77%
Barometer: 1002 hPa
Clouds: Övervägande molnigt
Visibility: 10 km
Cloud details: Enstaka moln 610 m
Delvis molnigt 823 m
Övervägande molnigt 975 m
2020/10/27 12:20 ESMT 271220Z 20015KT 9999 FEW020 SCT027 BKN032 11/07 Q1002
 
ESTL - Ljungbyhed, Sweden
Distance from station: SSO 45km
Uppdaterad: 2020-10-27 13:20
Övervägande molnigt
Övervägande molnigt
 Vind från SSV
Vind: SSV 15 km/h, Vindby: 35 km/h
Temperatur: 11°C
Daggpunkt: 8°C
Luftfuktighet: 82%
Barometer: 1003 hPa
Clouds: Övervägande molnigt
Visibility: 10 km
Cloud details: Enstaka moln 549 m
Övervägande molnigt 975 m
2020/10/27 12:20 ESTL 271220Z 20008G19KT 170V240 9999 FEW018 BKN032 11/08 Q1003
EKCH - Copenhagen/Kastrup, Denmark
Distance from station: S 92km
Uppdaterad: 2020-10-27 13:20
Övervägande molnigt
Övervägande molnigt
 Vind från SSV
Vind: SSV 26 km/h
Temperatur: 11°C
Daggpunkt: 8°C
Luftfuktighet: 82%
Barometer: 1003 hPa
Clouds: Övervägande molnigt
Visibility: 10 km
Cloud details: Övervägande molnigt 579 m
2020/10/27 12:20 EKCH 271220Z AUTO 21014KT 9999 BKN019/// 11/08 Q1003 NOSIG
 
ESMK - Kristianstad/Everöd, Sweden
Distance from station: SO 93km
Uppdaterad: 2020-10-27 13:20
Övervägande molnigt
Övervägande molnigt
 Vind från SSV
Vind: SSV 15 km/h
Temperatur: 11°C
Daggpunkt: 8°C
Luftfuktighet: 82%
Barometer: 1004 hPa
Clouds: Övervägande molnigt
Visibility: 10 km
Cloud details: Övervägande molnigt 610 m
Övervägande molnigt 1737 m
2020/10/27 12:20 ESMK 271220Z 20008KT 9999 BKN020 BKN057 11/08 Q1004
ESMS - Malmö/Sturup, Sweden
Distance from station: SSO 104km
Uppdaterad: 2020-10-27 13:20
Helmulet
Helmulet
 Vind från SSV
Vind: SSV 20 km/h
Temperatur: 10°C
Wind Chill: 7°C
Daggpunkt: 8°C
Luftfuktighet: 88%
Barometer: 1004 hPa
Clouds: Helmulet
Visibility: 10 km
Cloud details: Enstaka moln 549 m
Övervägande molnigt 823 m
Helmulet 1006 m
2020/10/27 12:20 ESMS 271220Z 20011KT 9999 FEW018 BKN027 OVC033 10/08 Q1004
 
EKRK - Copenhagen/Roskilde, Denmark
Distance from station: SSV 108km
Uppdaterad: 2020-10-27 13:20
Övervägande molnigt
Övervägande molnigt
 Vind från SSV
Vind: SSV 19 km/h
Temperatur: 11°C
Daggpunkt: 7°C
Luftfuktighet: 77%
Barometer: 1003 hPa
Clouds: Övervägande molnigt
Visibility: 10 km
Cloud details: Övervägande molnigt 792 m
2020/10/27 12:20 EKRK 271220Z AUTO 20010KT 9999 BKN026/// 11/07 Q1003
ESMX - Växjö/Kronoberg, Sweden
Distance from station: ONO 124km
Uppdaterad: 2020-10-27 13:20
Övervägande molnigt
Övervägande molnigt
 Vind från S
Vind: S 19 km/h
Temperatur: 10°C
Wind Chill: 7°C
Daggpunkt: 8°C
Luftfuktighet: 88%
Barometer: 1003 hPa
Clouds: Övervägande molnigt
Visibility: 10 km
Cloud details: Övervägande molnigt 488 m
2020/10/27 12:20 ESMX 271220Z 17010KT 9999 BKN016 10/08 Q1003
 
EKAH - Tirstrup, Denmark
Distance from station: V 141km
Uppdaterad: 2020-10-27 13:20
Övervägande molnigt
Övervägande molnigt
 Vind från S
Vind: S 15 km/h, Vindby: 35 km/h
Temperatur: 12°C
Daggpunkt: 8°C
Luftfuktighet: 77%
Barometer: 1000 hPa
Clouds: Övervägande molnigt
Visibility: 10 km
Cloud details: Övervägande molnigt 518 m
2020/10/27 12:20 EKAH 271220Z AUTO 19008G19KT 150V240 9999 BKN017/// 12/08 Q1000
ESGG - Göteborg/Landvetter, Sweden
Distance from station: NNV 142km
Uppdaterad: 2020-10-27 12:50
Helmulet
Helmulet
 Vind från S
Vind: S 26 km/h
Temperatur: 9°C
Wind Chill: 6°C
Daggpunkt: 7°C
Luftfuktighet: 87%
Barometer: 999 hPa
Clouds: Helmulet
Visibility: 10 km
Cloud details: Helmulet 396 m
2020/10/27 11:50 ESGG 271150Z 19014KT 9999 OVC013 09/07 Q0999 REDZ
 
ESDF - Ronneby, Sweden
Distance from station: O 147km
Uppdaterad: 2020-10-27 13:20
Övervägande molnigt
Övervägande molnigt
 Vind från SSV
Vind: SSV 20 km/h
Temperatur: 11°C
Daggpunkt: 9°C
Luftfuktighet: 88%
Barometer: 1004 hPa
Clouds: Övervägande molnigt
Visibility: 10 km
Cloud details: Delvis molnigt 457 m
Övervägande molnigt 610 m
2020/10/27 12:20 ESDF 271220Z 21011KT 9999 SCT015 BKN020 11/09 Q1004
ESGP - Göteborg/Säve, Sweden
Distance from station: NNV 161km
Uppdaterad: 2017-01-02 11:20
NOT Current
Klart
Klart
 Vind från calm
Vind: Vindstilla
Temperatur: -2°C
Daggpunkt: -4°C
Luftfuktighet: 86%
Barometer: 1012 hPa
Clouds: Klart
Visibility: 10 km
2017/01/02 10:20 ESGP 021020Z AUTO 00000KT 9999 NCD M02/M04 Q1012
 
ESGJ - Jönköping Airport, Sweden
Distance from station: NNO 164km
Uppdaterad: 2020-10-27 13:20
Övervägande molnigt
Övervägande molnigt
 Vind från S
Vind: S 15 km/h
Temperatur: 9°C
Wind Chill: 7°C
Daggpunkt: 7°C
Luftfuktighet: 87%
Barometer: 1001 hPa
Clouds: Övervägande molnigt
Visibility: 10 km
Cloud details: Delvis molnigt 457 m
Övervägande molnigt 732 m
2020/10/27 12:20 ESGJ 271220Z 19008KT 9999 SCT015 BKN024 09/07 Q1001
EKAV - Avno, Denmark
Distance from station: SSV 168km
Uppdaterad: 2016-10-04 06:20
NOT Current
Klart
Klart
 
Barometer: 1039 hPa
Clouds: Klart
Visibility: 10 km
2016/10/04 04:20 EKAV 040420Z AUTO ///// 9999NDV NCD ///// Q1039
 
EKRN - Rönne, Denmark
Distance from station: SO 191km
Uppdaterad: 2020-10-27 13:20
Övervägande molnigt
Övervägande molnigt
 Vind från SSV
Vind: SSV 26 km/h
Temperatur: 11°C
Daggpunkt: 9°C
Luftfuktighet: 88%
Barometer: 1006 hPa
Clouds: Övervägande molnigt
Visibility: 10 km
Cloud details: Övervägande molnigt 366 m
Övervägande molnigt 4877 m
2020/10/27 12:20 EKRN 271220Z AUTO 20014KT 9999 BKN012/// BKN160/// 11/09 Q1006
EKOD - Odense/Beldringe, Denmark
Distance from station: VSV 193km
Uppdaterad: 2020-10-27 12:50
Övervägande molnigt
Övervägande molnigt
 Vind från S
Vind: S 33 km/h
Temperatur: 11°C
Daggpunkt: 9°C
Luftfuktighet: 88%
Barometer: 1001 hPa
Clouds: Övervägande molnigt
Visibility: 10 km
Cloud details: Delvis molnigt 549 m
Övervägande molnigt 671 m
Övervägande molnigt 792 m
2020/10/27 11:50 EKOD 271150Z 19018KT 9999 SCT018 BKN022 BKN026 11/09 Q1001
 
EKYT - AAlborg, Denmark
Distance from station: VNV 199km
Uppdaterad: 2020-10-27 13:20
Övervägande molnigt
Övervägande molnigt
 Vind från S
Vind: S 30 km/h
Temperatur: 10°C
Wind Chill: 7°C
Daggpunkt: 8°C
Luftfuktighet: 88%
Barometer: 997 hPa
Clouds: Övervägande molnigt
Visibility: 10 km
Cloud details: Delvis molnigt 1463 m
Övervägande molnigt 2438 m
Övervägande molnigt 4877 m
2020/10/27 12:20 EKYT 271220Z AUTO 18016KT 9999 SCT048/// BKN080/// BKN160/// 10/08 Q0997
EKSN - Sindal Airport, Denmark
Distance from station: NV 201km
Uppdaterad: 2020-10-27 12:50
Lätt regn, Showers, Delvis molnigt
Lätt regn, Showers, Delvis molnigt
 Vind från S
Vind: S 33 km/h
Temperatur: 10°C
Wind Chill: 6°C
Daggpunkt: 8°C
Luftfuktighet: 88%
Barometer: 997 hPa
Summering: Lätt regn, Showers
Clouds: Delvis molnigt
Visibility: 10 km
Cloud details: Enstaka moln 549 m
Delvis molnigt 1463 m
2020/10/27 11:50 EKSN 271150Z 17018KT 9999 -SHRA FEW018 SCT048 10/08 Q0997
 
ESMQ - Kalmar, Sweden
Distance from station: O 211km
Uppdaterad: 2020-10-27 13:20
Övervägande molnigt
Övervägande molnigt
 Vind från S
Vind: S 17 km/h
Temperatur: 12°C
Daggpunkt: 9°C
Luftfuktighet: 82%
Barometer: 1004 hPa
Clouds: Övervägande molnigt
Visibility: 10 km
Cloud details: Enstaka moln 457 m
Delvis molnigt 792 m
Övervägande molnigt 1433 m
2020/10/27 12:20 ESMQ 271220Z 18009KT 9999 FEW015 SCT026 BKN047 12/09 Q1004
ESGT - Trollhättan, Sweden
Distance from station: N 212km
Uppdaterad: 2020-10-27 13:20
Övervägande molnigt
Övervägande molnigt
 Vind från S
Vind: S 20 km/h
Temperatur: 9°C
Wind Chill: 6°C
Daggpunkt: 8°C
Luftfuktighet: 94%
Barometer: 999 hPa
Clouds: Övervägande molnigt
Visibility: 10 km
Cloud details: Enstaka moln 244 m
Delvis molnigt 457 m
Övervägande molnigt 671 m
2020/10/27 12:20 ESGT 271220Z 17011KT 140V200 9999 FEW008 SCT015 BKN022 09/08 Q0999